Time;durP1;ratioP1;P1;durP2;ratioP2;P2;SDS_P1;SDS_P2;PMS_P1;PMS_P2;Temp;Humidity;BMP_temperature;BMP_pressure;BME280_temperature;BME280_humidity;BME280_pressure;Samples;Min_cycle;Max_cycle;Signal;HPM_P1;HPM_P2
2021/08/31 00:00:10;;;;;;;;;6.00;3.75;;;;;26.64;41.51;102282.91;5034486;28;45389;-73
2021/08/31 00:02:35;;;;;;;;;6.00;4.25;;;;;26.65;41.52;102289.09;5033466;28;45479;-73
2021/08/31 00:05:00;;;;;;;;;3.00;3.00;;;;;26.67;41.88;102292.41;5032924;28;45505;-72
2021/08/31 00:07:26;;;;;;;;;4.75;4.75;;;;;26.65;41.38;102294.44;5032746;28;45411;-72
2021/08/31 00:09:52;;;;;;;;;3.75;3.75;;;;;26.65;41.62;102295.25;5033232;28;45378;-73
2021/08/31 00:12:17;;;;;;;;;5.50;5.00;;;;;26.59;41.03;102287.97;5033409;28;45251;-73
2021/08/31 00:14:43;;;;;;;;;5.00;5.00;;;;;26.64;41.59;102293.59;5034454;28;46291;-73
2021/08/31 00:17:09;;;;;;;;;5.00;4.00;;;;;26.64;41.10;102293.59;5032587;28;45376;-72
2021/08/31 00:19:35;;;;;;;;;7.50;6.25;;;;;26.66;41.29;102302.25;5032884;28;45481;-71
2021/08/31 00:22:00;;;;;;;;;5.25;4.00;;;;;26.67;41.10;102300.41;5033063;28;45310;-73
2021/08/31 00:24:26;;;;;;;;;4.50;4.50;;;;;26.66;41.23;102298.75;5032923;28;47098;-72
2021/08/31 00:26:51;;;;;;;;;4.00;4.00;;;;;26.66;41.43;102293.41;5034768;28;45285;-72
2021/08/31 00:29:17;;;;;;;;;5.50;5.50;;;;;26.64;41.27;102290.94;5032925;28;45319;-73
2021/08/31 00:31:42;;;;;;;;;7.25;5.75;;;;;26.63;41.12;102291.94;5032402;28;45441;-73
2021/08/31 00:34:07;;;;;;;;;4.50;4.50;;;;;26.63;41.02;102297.25;5032512;28;45444;-73
2021/08/31 00:36:33;;;;;;;;;5.00;5.00;;;;;26.62;41.09;102292.94;5033110;28;45315;-72
2021/08/31 00:38:58;;;;;;;;;5.00;5.00;;;;;26.65;41.42;102297.09;5038151;28;45503;-72
2021/08/31 00:41:25;;;;;;;;;6.25;4.50;;;;;26.63;41.10;102306.09;5036177;28;45508;-73
2021/08/31 00:43:51;;;;;;;;;5.50;5.50;;;;;26.64;41.31;102296.25;5035956;28;46757;-72
2021/08/31 00:46:17;;;;;;;;;4.75;4.75;;;;;26.65;41.17;102294.44;5035727;28;45272;-73
2021/08/31 00:48:44;;;;;;;;;4.00;4.00;;;;;26.65;40.82;102299.78;5036098;28;45293;-73
2021/08/31 00:51:11;;;;;;;;;4.25;4.25;;;;;26.68;41.43;102304.72;5037103;28;45614;-73
2021/08/31 00:53:37;;;;;;;;;6.50;5.50;;;;;26.65;41.33;102297.91;5036411;28;46503;-73
2021/08/31 00:56:05;;;;;;;;;5.50;4.25;;;;;26.68;40.87;102300.22;5035961;28;45351;-73
2021/08/31 00:58:33;;;;;;;;;3.00;3.00;;;;;26.68;41.20;102299.41;5035709;28;45303;-73
2021/08/31 01:00:59;;;;;;;;;3.00;3.00;;;;;26.65;40.96;102287.22;5035409;28;45285;-73
2021/08/31 01:03:26;;;;;;;;;6.00;6.00;;;;;26.66;40.88;102294.25;5035674;28;45274;-72
2021/08/31 01:05:51;;;;;;;;;5.00;5.00;;;;;26.66;40.68;102293.41;5037575;28;45268;-73
2021/08/31 01:08:17;;;;;;;;;2.50;2.50;;;;;26.66;41.15;102298.75;5035694;28;45818;-72
2021/08/31 01:10:43;;;;;;;;;4.50;4.00;;;;;26.65;40.85;102300.59;5029978;28;45335;-73
2021/08/31 01:13:08;;;;;;;;;5.25;5.25;;;;;26.67;41.08;102305.75;5035348;28;46349;-73
2021/08/31 01:15:34;;;;;;;;;6.00;5.00;;;;;26.62;41.36;102295.63;5035334;28;45326;-73
2021/08/31 01:18:21;;;;;;;;;3.75;3.75;;;;;26.67;40.79;102303.94;5037800;28;45318;-72
2021/08/31 01:20:56;;;;;;;;;5.25;5.25;;;;;26.66;40.78;102307.59;5035487;28;45501;-72
2021/08/31 01:23:23;;;;;;;;;5.00;3.75;;;;;26.58;41.02;102292.47;5035438;28;45912;-73
2021/08/31 01:25:49;;;;;;;;;4.00;4.00;;;;;26.67;41.26;102303.09;5035099;28;45280;-73
2021/08/31 01:28:21;;;;;;;;;3.50;3.50;;;;;26.67;41.25;102306.59;5034900;28;45382;-73
2021/08/31 01:30:54;;;;;;;;;4.00;4.00;;;;;26.67;40.87;102303.09;5035552;28;45524;-73
2021/08/31 01:33:21;;;;;;;;;5.00;4.50;;;;;26.64;40.64;102298.94;5035537;28;46081;-73
2021/08/31 01:35:47;;;;;;;;;4.50;4.50;;;;;26.66;41.16;102298.75;5035392;28;45475;-73
2021/08/31 01:38:12;;;;;;;;;3.75;3.50;;;;;26.67;41.04;102305.75;5029752;28;45830;-72
2021/08/31 01:40:38;;;;;;;;;4.00;4.00;;;;;26.65;40.67;102305.13;5035282;28;45270;-73
2021/08/31 01:43:03;;;;;;;;;5.00;4.00;;;;;26.63;40.83;102302.59;5018685;28;47314;-72
2021/08/31 01:45:44;;;;;;;;;3.00;3.00;;;;;26.66;40.73;102304.91;5035143;28;45420;-73
2021/08/31 01:48:10;;;;;;;;;4.25;4.25;;;;;26.63;41.06;102310.59;5033221;28;45318;-73
2021/08/31 01:50:36;;;;;;;;;5.25;5.00;;;;;26.62;40.92;102309.78;5021828;28;45464;-73
2021/08/31 01:53:01;;;;;;;;;4.75;4.75;;;;;26.65;40.69;102302.44;5034626;28;46150;-73
2021/08/31 01:55:26;;;;;;;;;5.25;5.25;;;;;26.67;40.67;102316.44;5034885;28;45473;-73
2021/08/31 01:57:52;;;;;;;;;3.25;3.25;;;;;26.62;40.75;102307.09;5034869;28;45710;-73
2021/08/31 02:00:17;;;;;;;;;5.00;3.75;;;;;26.67;41.14;102311.94;5035293;28;45303;-73
2021/08/31 02:02:42;;;;;;;;;3.75;3.50;;;;;26.67;41.08;102314.59;5036463;28;46245;-73
2021/08/31 02:05:08;;;;;;;;;5.00;5.00;;;;;26.69;41.08;102315.25;5034566;28;45443;-73
2021/08/31 02:07:34;;;;;;;;;4.00;4.00;;;;;26.68;41.04;102316.25;5034724;28;45421;-72
2021/08/31 02:09:59;;;;;;;;;5.25;5.25;;;;;26.68;41.06;102318.91;5034852;28;45284;-73
2021/08/31 02:12:25;;;;;;;;;3.25;3.00;;;;;26.66;41.13;102318.28;5034315;28;54804;-73
2021/08/31 02:14:50;;;;;;;;;3.75;3.75;;;;;26.67;41.18;102317.28;5036018;28;45287;-73
2021/08/31 02:17:16;;;;;;;;;3.75;3.50;;;;;26.63;40.88;102310.59;5034757;28;45561;-72
2021/08/31 02:27:27;;;;;;;;;3.75;3.00;;;;;26.66;40.95;102310.25;5834643;22;46295;-75
2021/08/31 02:29:52;;;;;;;;;5.50;4.75;;;;;26.65;40.83;102313.94;5028451;28;45648;-73
2021/08/31 05:29:18;;;;;;;;;7.50;3.25;;;;;26.57;40.99;102335.34;5588536;23;46752;-66
2021/08/31 05:31:45;;;;;;;;;2.50;2.25;;;;;26.56;41.04;102333.69;4984961;28;45470;-67
2021/08/31 05:36:46;;;;;;;;;4.00;4.00;;;;;26.55;41.24;102324.00;5665645;22;45906;-65
2021/08/31 05:39:11;;;;;;;;;5.50;3.25;;;;;26.57;41.08;102336.16;4990718;28;45560;-74
2021/08/31 05:41:37;;;;;;;;;4.00;4.00;;;;;26.60;41.13;102333.16;4991080;28;46197;-84
2021/08/31 05:44:02;;;;;;;;;4.00;3.50;;;;;26.62;41.02;102344.47;4992041;28;45484;-84
2021/08/31 05:46:28;;;;;;;;;4.00;4.00;;;;;26.65;41.18;102339.81;4994765;28;45362;-84
2021/08/31 05:48:53;;;;;;;;;2.50;2.50;;;;;26.61;40.87;102337.50;4993368;28;45295;-84
2021/08/31 05:51:19;;;;;;;;;2.75;2.75;;;;;26.69;41.10;102338.44;4990925;28;46890;-83
2021/08/31 05:53:45;;;;;;;;;3.75;2.00;;;;;26.59;41.11;102326.16;4990770;28;50484;-84
2021/08/31 05:56:10;;;;;;;;;3.25;3.25;;;;;26.65;40.75;102329.94;4991129;28;45410;-84
2021/08/31 05:58:36;;;;;;;;;3.00;3.00;;;;;26.77;41.13;102338.41;4995639;28;45311;-84
2021/08/31 06:01:02;;;;;;;;;2.00;2.00;;;;;26.87;41.04;102345.34;4992676;28;45967;-84
2021/08/31 06:03:28;;;;;;;;;3.00;2.75;;;;;26.93;41.04;102347.31;4991068;28;45362;-84
2021/08/31 06:05:53;;;;;;;;;2.50;2.50;;;;;26.99;40.71;102345.75;4991055;28;45417;-84
2021/08/31 06:08:18;;;;;;;;;3.00;3.00;;;;;27.05;41.11;102359.25;4990889;28;45573;-84
2021/08/31 06:10:44;;;;;;;;;2.50;2.50;;;;;27.02;40.77;102346.22;4994509;28;45330;-84
2021/08/31 06:13:09;;;;;;;;;2.75;2.75;;;;;27.08;40.77;102342.03;4993128;28;45382;-84
2021/08/31 06:15:35;;;;;;;;;3.00;3.00;;;;;27.10;40.98;102347.19;4983066;28;45235;-83
2021/08/31 06:18:00;;;;;;;;;6.25;3.25;;;;;27.23;40.37;102357.28;4982470;28;45307;-84
2021/08/31 06:20:25;;;;;;;;;2.25;2.25;;;;;27.30;40.15;102366.25;4981972;28;46147;-84
2021/08/31 06:22:51;;;;;;;;;4.75;3.25;;;;;27.25;40.39;102355.25;4979614;28;45443;-84
2021/08/31 06:25:16;;;;;;;;;2.75;2.75;;;;;27.42;39.94;102371.19;4980126;28;45362;-84
2021/08/31 06:27:41;;;;;;;;;3.25;3.25;;;;;27.42;40.29;102371.19;4982192;28;45567;-84
2021/08/31 06:30:08;;;;;;;;;5.00;4.00;;;;;27.52;40.17;102366.41;4982119;28;45949;-84
2021/08/31 06:32:33;;;;;;;;;3.00;3.00;;;;;27.60;40.16;102373.53;4982136;28;45433;-84
2021/08/31 06:34:58;;;;;;;;;2.00;2.00;;;;;27.55;40.11;102359.88;4980720;28;45479;-84
2021/08/31 06:37:24;;;;;;;;;3.25;3.25;;;;;27.69;39.66;102371.63;4979110;28;45509;-84
2021/08/31 06:39:49;;;;;;;;;3.00;3.00;;;;;27.77;39.75;102373.34;4981378;28;45320;-82
2021/08/31 06:42:15;;;;;;;;;3.25;3.25;;;;;27.81;39.21;102377.38;4981991;28;45420;-82
2021/08/31 06:44:40;;;;;;;;;5.00;3.75;;;;;27.85;38.99;102374.13;4982184;28;45434;-85
2021/08/31 06:47:05;;;;;;;;;2.25;2.25;;;;;27.89;39.64;102373.78;4981533;28;45344;-85
2021/08/31 06:49:35;;;;;;;;;3.00;3.00;;;;;27.94;39.04;102380.25;4978210;28;45977;-85
2021/08/31 06:52:00;;;;;;;;;3.75;3.75;;;;;27.99;39.14;102384.19;4980729;28;45309;-85
2021/08/31 06:54:26;;;;;;;;;2.00;2.00;;;;;27.95;39.39;102376.53;4981973;28;45401;-85
2021/08/31 06:56:51;;;;;;;;;2.75;2.75;;;;;27.98;38.80;102375.34;4982096;28;45339;-85
2021/08/31 06:59:16;;;;;;;;;2.00;2.00;;;;;28.06;39.42;102377.09;4981683;28;45512;-84
2021/08/31 07:01:42;;;;;;;;;2.00;2.00;;;;;28.07;38.84;102386.78;4978199;28;45459;-85
2021/08/31 07:04:07;;;;;;;;;5.00;3.50;;;;;28.09;38.70;102390.09;4980461;28;45324;-85
2021/08/31 07:06:33;;;;;;;;;2.25;2.25;;;;;28.11;38.76;102393.41;4981763;28;45667;-84
2021/08/31 07:08:59;;;;;;;;;3.00;3.00;;;;;28.06;38.53;102385.94;4985218;28;46156;-84
2021/08/31 07:11:24;;;;;;;;;3.50;2.25;;;;;28.03;39.04;102382.81;4989986;28;47116;-84
2021/08/31 07:13:50;;;;;;;;;2.75;2.75;;;;;28.12;38.61;102396.94;4994706;28;45417;-84
2021/08/31 07:16:15;;;;;;;;;3.75;3.75;;;;;28.14;39.16;102398.41;4979422;28;45525;-85
2021/08/31 07:18:40;;;;;;;;;2.00;2.00;;;;;28.14;38.39;102400.25;4981400;28;45363;-85
2021/08/31 07:21:06;;;;;;;;;3.75;3.75;;;;;28.13;38.57;102399.41;4981303;28;45390;-85
2021/08/31 07:23:31;;;;;;;;;4.00;3.00;;;;;27.90;38.49;102354.03;4981769;28;45316;-85
2021/08/31 07:25:57;;;;;;;;;4.00;4.00;;;;;28.07;38.57;102386.78;4979763;28;45382;-85
2021/08/31 07:28:22;;;;;;;;;3.75;3.75;;;;;28.04;38.28;102385.31;4979163;28;45843;-85
2021/08/31 07:30:47;;;;;;;;;3.00;3.00;;;;;28.13;39.00;102399.41;4992446;28;45342;-85
2021/08/31 07:33:13;;;;;;;;;2.50;2.50;;;;;27.95;39.02;102365.84;4983990;28;45444;-85
2021/08/31 07:35:38;;;;;;;;;2.25;2.25;;;;;28.11;39.03;102393.41;4981085;28;45471;-85
2021/08/31 07:38:05;;;;;;;;;3.50;3.00;;;;;28.02;38.67;102386.50;4978942;28;47141;-85
2021/08/31 07:40:32;;;;;;;;;3.00;3.00;;;;;28.06;38.49;102396.66;4993447;28;45373;-85
2021/08/31 07:42:57;;;;;;;;;3.50;2.25;;;;;28.03;39.04;102398.84;4991610;28;45443;-85
2021/08/31 07:45:23;;;;;;;;;3.00;3.00;;;;;28.04;39.00;102397.84;4989530;28;45369;-85
2021/08/31 07:47:49;;;;;;;;;3.25;3.25;;;;;27.91;38.79;102377.94;4993994;28;46313;-85
2021/08/31 07:50:14;;;;;;;;;3.00;2.67;;;;;28.01;38.61;102396.38;4995447;28;45374;-84
2021/08/31 07:52:40;;;;;;;;;2.00;2.00;;;;;27.95;38.98;102389.91;4999167;28;45883;-85
2021/08/31 07:55:08;;;;;;;;;2.00;2.00;;;;;28.01;38.73;102406.25;4997119;28;45531;-85
2021/08/31 07:57:37;;;;;;;;;2.00;2.00;;;;;28.00;38.70;102400.06;4995936;28;47053;-83
2021/08/31 08:00:07;;;;;;;;;3.00;3.00;;;;;27.99;38.63;102406.44;4994500;28;45311;-85
2021/08/31 08:02:34;;;;;;;;;3.50;3.00;;;;;28.00;38.65;102408.06;4998862;28;45493;-85
2021/08/31 08:05:01;;;;;;;;;3.75;3.75;;;;;27.92;39.35;102398.28;5001157;28;45510;-84
2021/08/31 08:07:26;;;;;;;;;3.00;2.00;;;;;27.98;38.82;102412.78;4985349;28;45410;-83
2021/08/31 08:09:53;;;;;;;;;5.00;4.00;;;;;27.95;39.19;102419.34;4988177;28;45448;-85
2021/08/31 08:12:19;;;;;;;;;3.50;2.75;;;;;27.96;39.29;102414.81;4989967;28;45492;-85
2021/08/31 08:14:44;;;;;;;;;3.00;3.00;;;;;27.86;38.92;102404.41;4990202;28;45343;-84
2021/08/31 08:17:10;;;;;;;;;3.00;3.00;;;;;27.89;39.21;102416.56;5000958;28;45962;-84
2021/08/31 08:19:35;;;;;;;;;5.00;3.25;;;;;27.87;38.83;102426.63;4984886;28;45472;-85
2021/08/31 08:22:00;;;;;;;;;2.75;2.75;;;;;27.75;39.26;102419.00;4987073;28;45519;-85
2021/08/31 08:24:26;;;;;;;;;3.00;3.00;;;;;27.77;39.27;102422.31;4989887;28;45431;-85
2021/08/31 09:09:47;;;;;;;;;4.00;4.00;;;;;27.49;39.15;102445.13;5343194;23;46798;-85
2021/08/31 09:12:33;;;;;;;;;5.00;3.75;;;;;27.52;39.83;102454.63;4992039;28;45517;-85
2021/08/31 09:15:26;;;;;;;;;4.00;4.00;;;;;27.51;39.66;102459.13;4983448;28;45511;-84
2021/08/31 09:18:07;;;;;;;;;3.00;3.00;;;;;27.50;39.18;102459.31;4990130;28;45381;-85
2021/08/31 09:20:56;;;;;;;;;2.00;2.00;;;;;27.44;39.38;102449.31;4991567;28;45433;-85
2021/08/31 09:23:34;;;;;;;;;3.75;3.00;;;;;27.47;39.93;102460.50;4991573;28;46284;-84
2021/08/31 09:26:08;;;;;;;;;2.25;2.25;;;;;27.47;39.72;102457.84;4991412;28;45381;-84
2021/08/31 09:28:37;;;;;;;;;5.00;4.25;;;;;27.37;39.24;102439.38;4992925;28;45286;-84
2021/08/31 09:31:10;;;;;;;;;3.00;3.00;;;;;27.47;39.84;102449.81;4995133;28;45542;-84
2021/08/31 09:33:39;;;;;;;;;3.00;3.00;;;;;27.45;39.54;102456.34;4993074;28;46166;-84
2021/08/31 09:36:16;;;;;;;;;4.00;3.00;;;;;27.46;39.24;102463.34;4991475;28;45373;-84
2021/08/31 09:38:55;;;;;;;;;3.50;3.00;;;;;27.45;39.58;102464.38;4989259;28;45472;-84
2021/08/31 09:41:38;;;;;;;;;6.25;5.00;;;;;27.44;39.59;102468.03;4992251;28;45478;-84
2021/08/31 09:44:19;;;;;;;;;5.00;3.50;;;;;27.45;39.15;102459.03;4994133;28;47552;-84
2021/08/31 09:46:55;;;;;;;;;3.50;3.50;;;;;27.45;39.78;102461.69;4985407;28;45397;-84
2021/08/31 09:49:33;;;;;;;;;2.00;2.00;;;;;27.46;39.14;102464.19;4982688;28;45238;-84
2021/08/31 09:52:12;;;;;;;;;2.75;2.75;;;;;27.48;39.68;102462.16;4980967;28;45343;-84
2021/08/31 09:54:48;;;;;;;;;3.00;3.00;;;;;27.34;39.28;102428.19;4992642;28;46210;-84
2021/08/31 09:57:37;;;;;;;;;3.00;3.00;;;;;27.51;39.07;102463.63;4991837;28;45362;-83
2021/08/31 10:00:09;;;;;;;;;3.25;3.25;;;;;27.52;39.50;102465.31;4985778;28;45296;-84
2021/08/31 10:02:34;;;;;;;;;2.50;2.50;;;;;27.53;39.59;102464.31;4985401;28;45562;-84
2021/08/31 10:05:00;;;;;;;;;4.25;3.25;;;;;27.51;39.57;102471.66;4985058;28;45429;-84
2021/08/31 10:07:26;;;;;;;;;3.25;3.25;;;;;27.49;39.22;102468.34;4983173;28;45415;-84
2021/08/31 10:09:53;;;;;;;;;4.00;4.00;;;;;27.47;38.92;102447.16;4979687;28;45399;-84
2021/08/31 10:12:22;;;;;;;;;2.00;2.00;;;;;27.41;38.87;102437.16;4984197;28;45308;-83
2021/08/31 10:14:55;;;;;;;;;3.25;2.75;;;;;27.52;39.39;102452.78;4985078;28;46995;-84
2021/08/31 10:17:23;;;;;;;;;4.00;3.00;;;;;27.52;39.06;102459.97;4985204;28;45446;-84
2021/08/31 10:19:51;;;;;;;;;4.50;2.75;;;;;27.51;39.38;102455.63;4982478;28;45489;-84
2021/08/31 10:22:17;;;;;;;;;5.00;4.50;;;;;27.43;39.04;102448.50;4978695;28;45414;-84
2021/08/31 10:24:44;;;;;;;;;4.75;4.75;;;;;27.52;39.61;102462.63;4980716;28;46028;-84
2021/08/31 10:27:34;;;;;;;;;6.00;4.00;;;;;27.52;39.50;102450.13;4982166;28;45426;-84
2021/08/31 10:30:15;;;;;;;;;4.00;3.50;;;;;27.54;38.99;102454.44;4982582;28;45310;-84
2021/08/31 10:32:45;;;;;;;;;4.00;3.50;;;;;27.52;39.50;102452.78;4982045;28;45335;-83
2021/08/31 10:35:31;;;;;;;;;4.00;3.00;;;;;27.43;38.84;102440.47;4982199;28;46583;-83
2021/08/31 10:37:58;;;;;;;;;3.50;3.50;;;;;27.49;39.47;102447.78;4981747;28;45442;-84
2021/08/31 10:40:38;;;;;;;;;5.25;4.00;;;;;27.49;39.16;102449.63;4979767;28;45375;-85
2021/08/31 10:43:12;;;;;;;;;3.25;3.25;;;;;27.47;39.03;102449.81;4995272;28;45575;-85
2021/08/31 10:45:51;;;;;;;;;4.25;3.75;;;;;27.49;39.56;102454.97;4992431;28;45472;-85
2021/08/31 10:48:23;;;;;;;;;3.25;3.25;;;;;27.48;38.98;102447.97;4991478;28;45303;-84
2021/08/31 10:51:10;;;;;;;;;3.75;3.50;;;;;27.38;39.56;102435.66;4990433;28;45501;-84
2021/08/31 10:53:46;;;;;;;;;4.00;3.00;;;;;27.40;39.16;102430.97;4990222;28;45509;-83
2021/08/31 10:56:24;;;;;;;;;6.00;4.00;;;;;27.46;39.52;102458.00;4990060;28;45421;-84
2021/08/31 10:58:54;;;;;;;;;5.00;3.00;;;;;27.46;39.03;102458.84;4990111;28;45402;-83
2021/08/31 11:01:22;;;;;;;;;3.00;3.00;;;;;27.45;39.31;102456.34;4993684;28;45264;-84
2021/08/31 11:03:52;;;;;;;;;3.00;3.00;;;;;27.36;38.97;102434.19;4992990;28;45228;-84
2021/08/31 11:06:28;;;;;;;;;3.75;3.00;;;;;27.43;39.07;102432.47;4990913;28;45521;-84
2021/08/31 11:09:08;;;;;;;;;3.25;3.25;;;;;27.44;39.17;102439.47;4983190;28;45490;-83
2021/08/31 11:11:34;;;;;;;;;3.50;3.50;;;;;27.29;39.54;102420.72;4981654;28;45331;-85
2021/08/31 11:13:59;;;;;;;;;4.00;3.25;;;;;27.34;38.95;102434.38;4981739;28;45604;-84
2021/08/31 11:16:30;;;;;;;;;5.50;3.75;;;;;27.40;39.23;102444.34;4977761;28;45937;-84
2021/08/31 11:18:55;;;;;;;;;3.00;3.00;;;;;27.31;39.15;102437.41;4979297;28;45628;-85
2021/08/31 11:21:21;;;;;;;;;4.00;4.00;;;;;27.38;39.20;102448.19;4979566;28;45505;-84
2021/08/31 11:23:47;;;;;;;;;3.75;3.75;;;;;27.36;38.88;102444.88;4981611;28;45300;-84
2021/08/31 11:26:24;;;;;;;;;5.00;3.00;;;;;27.35;39.43;102446.72;4981492;28;46137;-84
2021/08/31 11:28:52;;;;;;;;;3.75;3.00;;;;;27.31;39.42;102426.72;4981364;28;45308;-84
2021/08/31 11:31:25;;;;;;;;;3.75;3.00;;;;;27.38;38.95;102430.31;4978431;28;45380;-83
2021/08/31 11:33:53;;;;;;;;;3.50;3.50;;;;;27.38;39.43;102445.53;4979276;28;45320;-84
2021/08/31 11:36:23;;;;;;;;;5.00;5.00;;;;;27.38;38.84;102438.34;4990786;28;46911;-85
2021/08/31 11:38:49;;;;;;;;;3.50;3.00;;;;;27.38;38.96;102443.69;4989700;28;45464;-84
2021/08/31 11:41:17;;;;;;;;;6.00;2.25;;;;;27.38;39.47;102445.53;4989702;28;45445;-84
2021/08/31 11:43:44;;;;;;;;;3.50;3.50;;;;;27.38;39.26;102442.84;4993017;28;45525;-84
2021/08/31 11:46:10;;;;;;;;;2.50;2.50;;;;;27.35;39.49;102435.22;4978527;28;47170;-84
2021/08/31 11:48:36;;;;;;;;;3.50;3.50;;;;;27.27;39.12;102431.56;4991395;28;45358;-84
2021/08/31 11:51:02;;;;;;;;;4.25;4.25;;;;;27.09;39.68;102397.09;4989315;28;45843;-84
2021/08/31 11:53:28;;;;;;;;;2.00;2.00;;;;;27.27;39.24;102430.75;4989714;28;45522;-84
2021/08/31 11:55:58;;;;;;;;;3.00;3.00;;;;;27.35;39.55;102432.53;4990194;28;47146;-84
2021/08/31 11:58:24;;;;;;;;;5.00;4.00;;;;;27.36;39.06;102434.19;4993206;28;45414;-83
2021/08/31 12:00:50;;;;;;;;;3.00;3.00;;;;;27.27;39.39;102431.56;4992981;28;45410;-84
2021/08/31 12:03:19;;;;;;;;;5.50;4.00;;;;;27.35;39.19;102440.56;4990311;28;45391;-84
2021/08/31 12:05:45;;;;;;;;;4.25;4.25;;;;;27.31;39.00;102431.22;4989109;28;46261;-84
2021/08/31 12:08:11;;;;;;;;;3.00;3.00;;;;;27.03;39.47;102390.66;4989242;28;45426;-85
2021/08/31 12:10:37;;;;;;;;;4.50;4.50;;;;;27.32;39.38;102432.91;4990171;28;45522;-84
2021/08/31 12:13:03;;;;;;;;;3.50;3.50;;;;;27.25;38.98;102412.22;4991504;28;45829;-84
2021/08/31 12:15:28;;;;;;;;;3.75;3.75;;;;;27.20;39.15;102403.06;4991047;28;45322;-84
2021/08/31 12:18:03;;;;;;;;;5.25;5.00;;;;;27.31;39.18;102428.53;4983258;28;45342;-84
2021/08/31 12:20:28;;;;;;;;;3.00;3.00;;;;;27.26;38.97;102434.44;4980956;28;45438;-84
2021/08/31 12:23:00;;;;;;;;;4.75;4.00;;;;;27.29;39.45;102428.75;4981002;28;45503;-83
2021/08/31 12:25:26;;;;;;;;;4.00;4.00;;;;;27.16;39.24;102422.16;4978561;28;45950;-84
2021/08/31 12:27:54;;;;;;;;;5.00;4.00;;;;;27.25;39.47;102425.56;4978294;28;45422;-84
2021/08/31 12:32:56;;;;;;;;;3.00;3.00;;;;;27.28;38.97;102454.63;5247598;23;46330;-84
2021/08/31 12:35:34;;;;;;;;;3.75;3.75;;;;;27.27;38.91;102447.59;4992797;28;46395;-85
2021/08/31 18:45:39;;;;;;;;;8.75;8.75;;;;;26.76;39.47;102414.16;5072078;27;45516;-65
2021/08/31 18:48:05;;;;;;;;;9.25;8.25;;;;;26.74;39.67;102433.03;5068785;27;45471;-65
2021/08/31 18:50:31;;;;;;;;;11.50;8.00;;;;;26.63;39.43;102414.72;5071474;27;45414;-65
2021/08/31 18:53:08;;;;;;;;;12.25;9.00;;;;;26.65;39.51;102430.56;5065872;27;45667;-65
2021/08/31 18:55:33;;;;;;;;;11.00;9.00;;;;;26.67;40.02;102436.56;5066659;27;46870;-63
2021/08/31 18:57:59;;;;;;;;;7.25;7.25;;;;;26.62;39.52;102435.22;5066452;27;45456;-63
2021/08/31 19:00:24;;;;;;;;;10.25;6.50;;;;;26.61;39.83;102432.75;5059259;27;45598;-63
2021/08/31 19:02:49;;;;;;;;;7.00;7.00;;;;;26.60;39.68;102447.91;5073282;27;46063;-63
2021/08/31 19:05:15;;;;;;;;;7.00;7.00;;;;;26.57;40.21;102447.44;5070026;27;45533;-62
2021/08/31 19:07:40;;;;;;;;;9.75;8.00;;;;;26.55;39.72;102452.94;5068251;27;45489;-63
2021/08/31 19:10:06;;;;;;;;;7.75;7.75;;;;;26.58;40.06;102441.94;5065551;27;45829;-62
2021/08/31 19:12:32;;;;;;;;;10.25;8.50;;;;;26.54;40.08;102459.31;5073830;27;45490;-62
2021/08/31 19:14:59;;;;;;;;;10.50;7.00;;;;;26.57;40.43;102466.13;5069306;27;45748;-63
2021/08/31 19:17:26;;;;;;;;;6.25;6.25;;;;;26.53;40.61;102473.66;5066206;28;45385;-62
2021/08/31 19:19:52;;;;;;;;;8.50;8.00;;;;;26.53;40.25;102465.63;5067022;27;48818;-63
2021/08/31 19:22:17;;;;;;;;;6.50;6.25;;;;;26.52;40.32;102462.13;5066417;27;45395;-62
2021/08/31 19:24:43;;;;;;;;;9.25;7.50;;;;;26.51;40.44;102468.50;5071306;27;47007;-62
2021/08/31 19:27:09;;;;;;;;;6.25;6.25;;;;;26.50;40.58;102473.97;5071099;27;45566;-62
2021/08/31 19:29:35;;;;;;;;;5.50;5.50;;;;;26.41;40.25;102455.28;5070616;27;45458;-64
2021/08/31 19:32:00;;;;;;;;;8.25;6.50;;;;;26.49;40.47;102470.47;5070531;27;45570;-64
2021/08/31 19:34:26;;;;;;;;;6.75;6.00;;;;;26.48;40.46;102474.16;5071054;27;45331;-65
2021/08/31 19:36:51;;;;;;;;;9.75;6.75;;;;;26.51;40.36;102470.31;5069548;27;47413;-63
2021/08/31 19:39:17;;;;;;;;;7.00;7.00;;;;;26.54;40.68;102471.81;5070729;27;45462;-63
2021/08/31 19:41:42;;;;;;;;;5.75;5.50;;;;;26.56;40.38;102481.31;5069725;27;45500;-63
2021/08/31 19:44:07;;;;;;;;;8.00;6.00;;;;;26.53;40.15;102462.97;5077117;27;45612;-64
2021/08/31 19:46:33;;;;;;;;;6.00;6.00;;;;;26.65;40.48;102483.97;5077482;27;45443;-64
2021/08/31 19:49:03;;;;;;;;;7.00;7.00;;;;;26.68;40.59;102486.25;5079320;27;45416;-65
2021/08/31 19:51:28;;;;;;;;;10.50;6.00;;;;;26.70;40.80;102478.94;5074696;28;45334;-64
2021/08/31 19:53:53;;;;;;;;;8.50;7.00;;;;;26.73;40.86;102482.06;5077869;27;46509;-64
2021/08/31 19:56:19;;;;;;;;;7.50;5.50;;;;;26.76;41.17;102488.06;5077087;27;45491;-64
2021/08/31 19:58:44;;;;;;;;;8.00;6.75;;;;;26.79;40.61;102482.38;5054997;27;45440;-64
2021/08/31 20:01:09;;;;;;;;;6.00;6.00;;;;;26.80;40.63;102482.25;5075727;28;45824;-65
2021/08/31 20:03:36;;;;;;;;;6.25;6.00;;;;;26.78;40.97;102488.75;5074412;27;45485;-65
2021/08/31 20:06:01;;;;;;;;;7.25;6.00;;;;;26.80;40.67;102479.56;5074988;27;45428;-65
2021/08/31 20:08:27;;;;;;;;;7.25;6.00;;;;;26.85;41.06;102479.84;5073917;27;45605;-65
2021/08/31 20:10:52;;;;;;;;;10.25;7.00;;;;;26.84;41.05;102488.88;5075764;27;45543;-65
2021/08/31 20:13:18;;;;;;;;;7.25;7.00;;;;;26.87;40.66;102493.03;5073671;27;45417;-66
2021/08/31 20:15:43;;;;;;;;;6.00;6.00;;;;;26.90;41.02;102495.38;5075319;27;45538;-64
2021/08/31 20:18:09;;;;;;;;;7.25;6.00;;;;;26.90;40.54;102502.56;5053076;27;45506;-65
2021/08/31 20:20:34;;;;;;;;;6.00;6.00;;;;;26.92;41.08;102501.38;5058817;27;45637;-62
2021/08/31 20:23:00;;;;;;;;;5.50;5.25;;;;;26.90;40.58;102491.88;5076918;27;46569;-60
2021/08/31 20:25:26;;;;;;;;;6.00;4.50;;;;;26.92;41.19;102511.22;5072525;27;45861;-63
2021/08/31 20:27:51;;;;;;;;;8.00;7.00;;;;;26.89;41.17;102499.03;5074303;28;45551;-63
2021/08/31 20:30:17;;;;;;;;;5.75;5.75;;;;;26.95;40.72;102502.84;5076542;27;45303;-62
2021/08/31 20:32:43;;;;;;;;;6.75;5.00;;;;;26.95;40.86;102505.53;5077267;27;47382;-63
2021/08/31 20:35:09;;;;;;;;;8.00;8.00;;;;;26.97;40.62;102503.50;5078048;27;45831;-63
2021/08/31 20:37:35;;;;;;;;;6.50;5.00;;;;;26.97;40.62;102498.16;5058598;28;45363;-63
2021/08/31 20:40:00;;;;;;;;;10.00;6.50;;;;;26.96;41.34;102500.00;5076510;27;45453;-62
2021/08/31 20:42:26;;;;;;;;;6.00;6.00;;;;;26.95;41.24;102497.53;5072430;27;46546;-62
2021/08/31 20:44:51;;;;;;;;;6.50;4.75;;;;;26.92;41.01;102493.34;5077933;27;45408;-62
2021/08/31 20:47:16;;;;;;;;;6.25;6.00;;;;;26.91;41.57;102488.16;5075544;27;45554;-62
2021/08/31 20:49:42;;;;;;;;;6.50;6.00;;;;;26.96;41.37;102497.34;5077362;27;45456;-62
2021/08/31 20:52:08;;;;;;;;;6.50;6.00;;;;;26.98;41.50;102517.69;5057457;28;45540;-63
2021/08/31 20:54:33;;;;;;;;;5.00;4.50;;;;;26.99;41.40;102508.66;5073489;27;45553;-61
2021/08/31 20:56:59;;;;;;;;;7.75;7.75;;;;;26.99;41.17;102509.50;5074401;27;45541;-62
2021/08/31 20:59:25;;;;;;;;;6.50;4.75;;;;;26.99;41.27;102511.34;5075706;28;45396;-62
2021/08/31 21:01:51;;;;;;;;;4.25;4.00;;;;;26.94;41.56;102512.69;5073531;27;46693;-63
2021/08/31 21:04:16;;;;;;;;;5.75;5.75;;;;;26.99;41.62;102522.03;5078705;27;45451;-64
2021/08/31 21:06:42;;;;;;;;;6.75;6.75;;;;;27.00;41.34;102511.19;5075478;27;45514;-63
2021/08/31 21:09:07;;;;;;;;;5.75;5.00;;;;;26.99;41.41;102512.19;5081710;27;45468;-63
2021/08/31 21:11:32;;;;;;;;;8.25;5.00;;;;;26.98;41.46;102525.72;5076372;27;45614;-63
2021/08/31 21:13:58;;;;;;;;;6.50;6.50;;;;;26.96;41.36;102517.84;5075069;27;45465;-63
2021/08/31 21:16:24;;;;;;;;;6.00;6.00;;;;;27.02;41.63;102532.38;5075537;27;45714;-62
2021/08/31 21:18:50;;;;;;;;;6.00;6.00;;;;;27.00;41.76;102535.22;5073604;28;45463;-63
2021/08/31 21:21:15;;;;;;;;;8.25;6.25;;;;;26.97;41.46;102524.88;5077015;27;45544;-62
2021/08/31 21:23:41;;;;;;;;;11.25;5.00;;;;;27.03;41.40;102542.06;5056985;28;45393;-63
2021/08/31 21:26:09;;;;;;;;;4.75;3.75;;;;;27.02;41.37;102541.22;5074571;27;45652;-62